Time;durP1;ratioP1;P1;durP2;ratioP2;P2;SDS_P1;SDS_P2;PMS_P1;PMS_P2;Temp;Humidity;BMP_temperature;BMP_pressure;BME280_temperature;BME280_humidity;BME280_pressure;Samples;Min_cycle;Max_cycle;Signal;HPM_P1;HPM_P2
2023/05/29 00:00:59;;;;;;;9.30;6.32;;;;;17.00;98715.00;;;;5053936;28;20053;-62
2023/05/29 00:03:26;;;;;;;8.38;6.13;;;;;16.90;98721.00;;;;5055188;28;20037;-63
2023/05/29 00:05:53;;;;;;;8.95;6.18;;;;;16.80;98728.00;;;;5053903;28;20052;-63
2023/05/29 00:08:20;;;;;;;7.70;5.50;;;;;16.70;98728.00;;;;5055068;28;20071;-60
2023/05/29 00:10:46;;;;;;;9.20;5.97;;;;;16.80;98721.00;;;;5054893;28;20047;-63
2023/05/29 00:13:13;;;;;;;10.20;5.93;;;;;16.60;98720.00;;;;5054956;28;20115;-62
2023/05/29 00:15:40;;;;;;;11.23;6.38;;;;;16.50;98727.00;;;;5053849;28;20044;-63
2023/05/29 00:18:07;;;;;;;9.93;6.20;;;;;16.40;98722.00;;;;5054615;28;20037;-63
2023/05/29 00:20:34;;;;;;;10.55;5.82;;;;;16.50;98718.00;;;;5054713;28;20480;-62
2023/05/29 00:23:05;;;;;;;8.90;6.07;;;;;16.60;98728.00;;;;5054697;28;20049;-62
2023/05/29 00:25:32;;;;;;;9.00;5.75;;;;;16.50;98725.00;;;;5054765;28;20127;-62
2023/05/29 00:27:59;;;;;;;9.73;5.85;;;;;16.50;98724.00;;;;5054761;28;20076;-61
2023/05/29 00:30:25;;;;;;;9.63;5.75;;;;;16.40;98727.00;;;;5053046;28;20099;-62
2023/05/29 00:32:53;;;;;;;8.63;5.70;;;;;16.30;98722.00;;;;5053474;28;20144;-62
2023/05/29 00:35:20;;;;;;;10.60;5.85;;;;;16.20;98716.00;;;;5054620;28;20045;-63
2023/05/29 00:37:47;;;;;;;7.85;5.03;;;;;16.10;98715.00;;;;5055562;28;20067;-63
2023/05/29 00:40:14;;;;;;;10.27;6.32;;;;;16.20;98712.00;;;;5037389;28;20053;-62
2023/05/29 00:42:41;;;;;;;8.25;5.28;;;;;16.20;98722.00;;;;5053692;28;20076;-63
2023/05/29 00:45:08;;;;;;;6.47;4.78;;;;;16.20;98719.00;;;;5054826;28;20076;-61
2023/05/29 00:47:34;;;;;;;9.45;5.22;;;;;16.20;98717.00;;;;5055062;28;20041;-62
2023/05/29 00:50:02;;;;;;;8.68;5.72;;;;;16.30;98711.00;;;;5053094;28;20557;-62
2023/05/29 00:52:29;;;;;;;8.95;5.55;;;;;16.10;98707.00;;;;5054283;28;20548;-62
2023/05/29 00:54:56;;;;;;;7.90;5.82;;;;;16.00;98708.00;;;;5054326;28;20073;-63
2023/05/29 00:57:23;;;;;;;8.82;5.82;;;;;15.90;98713.00;;;;5054327;28;20064;-63
2023/05/29 00:59:50;;;;;;;10.70;5.72;;;;;16.00;98710.00;;;;5054093;28;20041;-63
2023/05/29 01:02:18;;;;;;;11.27;5.72;;;;;16.00;98714.00;;;;5054058;28;20110;-63
2023/05/29 01:04:45;;;;;;;7.45;5.35;;;;;15.90;98703.00;;;;5036808;28;20148;-63
2023/05/29 01:07:13;;;;;;;7.30;5.22;;;;;15.80;98716.00;;;;5053871;28;20072;-63
2023/05/29 01:09:40;;;;;;;10.40;5.82;;;;;15.70;98706.00;;;;5052846;28;20047;-62
2023/05/29 01:12:45;;;;;;;8.35;5.22;;;;;15.60;98705.00;;;;5054218;28;20472;-60
2023/05/29 01:15:21;;;;;;;8.43;5.53;;;;;15.50;98707.00;;;;5047427;28;20095;-60
2023/05/29 01:18:08;;;;;;;8.63;4.97;;;;;15.40;98708.00;;;;5052683;28;20053;-60
2023/05/29 01:20:41;;;;;;;11.38;5.35;;;;;15.30;98711.00;;;;5053270;28;20144;-61
2023/05/29 01:23:23;;;;;;;7.53;4.95;;;;;15.40;98711.00;;;;5053266;28;20045;-60
2023/05/29 01:26:06;;;;;;;6.07;4.82;;;;;15.50;98707.00;;;;5053679;28;20118;-60
2023/05/29 01:28:42;;;;;;;7.93;5.07;;;;;15.40;98704.00;;;;5053446;28;20049;-60
2023/05/29 01:31:12;;;;;;;9.45;5.30;;;;;15.30;98707.00;;;;5053572;28;20044;-62
2023/05/29 01:33:40;;;;;;;7.93;5.25;;;;;15.30;98700.00;;;;5054512;28;20037;-63
2023/05/29 01:36:11;;;;;;;7.70;5.45;;;;;15.30;98704.00;;;;5053545;28;20128;-61
2023/05/29 01:38:37;;;;;;;8.60;5.38;;;;;15.30;98710.00;;;;5059291;28;20044;-62
2023/05/29 01:41:04;;;;;;;8.35;5.55;;;;;15.30;98706.00;;;;5057758;28;20498;-63
2023/05/29 01:43:32;;;;;;;9.48;5.63;;;;;15.20;98711.00;;;;5036678;28;20049;-62
2023/05/29 01:45:59;;;;;;;9.57;5.53;;;;;15.10;98703.00;;;;5053197;28;20529;-64
2023/05/29 01:48:27;;;;;;;8.23;5.85;;;;;15.00;98704.00;;;;5053035;28;20068;-62
2023/05/29 01:50:55;;;;;;;10.15;5.53;;;;;15.00;98710.00;;;;5052670;28;20525;-62
2023/05/29 01:53:23;;;;;;;6.82;5.20;;;;;15.00;98705.00;;;;5053189;28;20052;-62
2023/05/29 01:55:51;;;;;;;6.75;4.63;;;;;15.10;98707.00;;;;5052838;28;20490;-61
2023/05/29 01:58:19;;;;;;;13.07;5.10;;;;;15.00;98710.00;;;;5035203;28;20467;-61
2023/05/29 02:00:47;;;;;;;7.55;5.25;;;;;15.00;98712.00;;;;5052669;28;20379;-62
2023/05/29 02:03:14;;;;;;;8.25;5.63;;;;;15.00;98712.00;;;;5051444;28;20051;-61
2023/05/29 02:05:41;;;;;;;8.13;5.63;;;;;14.90;98716.00;;;;5051757;28;20080;-62
2023/05/29 02:08:07;;;;;;;9.95;5.97;;;;;14.70;98706.00;;;;5052720;28;20041;-63
2023/05/29 02:10:34;;;;;;;8.93;5.60;;;;;14.70;98696.00;;;;5052917;28;20052;-63
2023/05/29 02:13:01;;;;;;;8.35;5.45;;;;;14.60;98695.00;;;;5051251;28;20057;-62
2023/05/29 02:15:27;;;;;;;10.65;5.30;;;;;14.60;98695.00;;;;5052231;28;20106;-63
2023/05/29 02:17:55;;;;;;;9.15;6.35;;;;;14.70;98699.00;;;;5051240;28;20048;-63
2023/05/29 02:20:21;;;;;;;7.80;5.47;;;;;14.80;98696.00;;;;5052232;28;20505;-62
2023/05/29 02:22:48;;;;;;;9.70;5.97;;;;;14.80;98711.00;;;;5051191;28;20771;-63
2023/05/29 02:25:15;;;;;;;9.50;5.68;;;;;14.80;98709.00;;;;5052259;28;20120;-62
2023/05/29 02:27:41;;;;;;;7.68;5.07;;;;;14.80;98700.00;;;;5052317;28;20045;-62
2023/05/29 02:30:08;;;;;;;6.25;4.93;;;;;14.80;98698.00;;;;5051895;28;20049;-62
2023/05/29 02:32:35;;;;;;;6.57;4.93;;;;;14.70;98696.00;;;;5052219;28;20136;-62
2023/05/29 02:35:05;;;;;;;8.95;5.10;;;;;14.60;98687.00;;;;5050829;28;20482;-62
2023/05/29 02:37:32;;;;;;;8.40;5.40;;;;;14.50;98698.00;;;;5052096;28;20170;-62
2023/05/29 02:39:58;;;;;;;7.43;5.25;;;;;14.30;98695.00;;;;5051883;28;20087;-62
2023/05/29 02:42:25;;;;;;;7.35;5.35;;;;;14.10;98683.00;;;;5052187;28;20053;-62
2023/05/29 02:44:51;;;;;;;7.00;5.07;;;;;14.00;98700.00;;;;5050554;28;20091;-62
2023/05/29 02:47:18;;;;;;;9.95;5.38;;;;;14.00;98697.00;;;;5052047;28;20071;-61
2023/05/29 02:49:45;;;;;;;8.43;5.25;;;;;14.00;98701.00;;;;5034300;28;20080;-62
2023/05/29 02:52:11;;;;;;;8.55;5.10;;;;;13.90;98688.00;;;;5050526;28;20110;-62
2023/05/29 02:54:38;;;;;;;7.47;5.20;;;;;13.90;98685.00;;;;5051113;28;20049;-62
2023/05/29 02:57:04;;;;;;;9.10;5.28;;;;;13.90;98695.00;;;;5052417;28;20129;-62
2023/05/29 02:59:32;;;;;;;8.02;5.15;;;;;13.90;98693.00;;;;5052039;28;20128;-61
2023/05/29 03:01:58;;;;;;;8.57;4.72;;;;;13.90;98699.00;;;;5051273;28;20063;-61
2023/05/29 03:04:26;;;;;;;7.65;4.60;;;;;14.00;98695.00;;;;5051199;28;20143;-61
2023/05/29 03:06:53;;;;;;;8.32;5.05;;;;;13.90;98696.00;;;;5058442;28;20059;-62
2023/05/29 03:09:20;;;;;;;6.10;4.65;;;;;13.90;98689.00;;;;5068037;28;20561;-62
2023/05/29 03:11:50;;;;;;;8.25;4.97;;;;;13.80;98693.00;;;;5069674;28;20060;-61
2023/05/29 03:14:18;;;;;;;6.45;4.97;;;;;13.70;98681.00;;;;5066070;28;20113;-61
2023/05/29 03:16:45;;;;;;;6.95;4.40;;;;;13.60;98681.00;;;;5065383;28;20076;-60
2023/05/29 03:19:12;;;;;;;6.80;4.47;;;;;13.70;98691.00;;;;5064800;28;20064;-61
2023/05/29 03:21:39;;;;;;;7.25;4.70;;;;;13.60;98687.00;;;;5064604;28;20060;-62
2023/05/29 03:24:06;;;;;;;9.05;5.20;;;;;13.50;98684.00;;;;5067713;28;20476;-62
2023/05/29 03:26:36;;;;;;;5.78;4.22;;;;;13.40;98679.00;;;;5066964;28;20072;-63
2023/05/29 03:29:03;;;;;;;7.45;4.72;;;;;13.30;98683.00;;;;5068059;28;20084;-62
2023/05/29 03:31:31;;;;;;;5.90;4.28;;;;;13.30;98692.00;;;;5066040;28;20116;-62
2023/05/29 03:33:59;;;;;;;8.23;5.20;;;;;13.30;98685.00;;;;5065943;28;20059;-62
2023/05/29 03:36:36;;;;;;;6.28;4.30;;;;;13.30;98686.00;;;;5055650;28;20049;-61
2023/05/29 03:39:03;;;;;;;7.35;4.95;;;;;13.30;98685.00;;;;5053996;28;20048;-62
2023/05/29 03:41:30;;;;;;;7.50;4.50;;;;;13.40;98698.00;;;;5054131;28;20045;-62
2023/05/29 03:43:57;;;;;;;8.15;4.65;;;;;13.50;98689.00;;;;5054009;28;20135;-61
2023/05/29 03:46:27;;;;;;;6.90;5.00;;;;;13.60;98698.00;;;;5053978;28;20076;-61
2023/05/29 03:48:54;;;;;;;8.15;4.80;;;;;13.80;98706.00;;;;5053594;28;20045;-61
2023/05/29 03:51:21;;;;;;;7.45;4.50;;;;;13.90;98693.00;;;;5055142;28;20116;-61
2023/05/29 03:53:49;;;;;;;6.95;5.38;;;;;13.80;98698.00;;;;5037702;28;20114;-61
2023/05/29 03:56:17;;;;;;;6.93;5.35;;;;;13.70;98703.00;;;;5053593;28;20053;-62
2023/05/29 03:58:44;;;;;;;6.22;4.90;;;;;13.60;98708.00;;;;5053563;28;20044;-62
2023/05/29 04:01:12;;;;;;;7.28;4.90;;;;;13.60;98717.00;;;;5037110;28;20053;-61
2023/05/29 04:03:39;;;;;;;8.38;5.40;;;;;13.60;98714.00;;;;5053466;28;20053;-61
2023/05/29 04:06:06;;;;;;;7.18;4.75;;;;;13.50;98719.00;;;;5054634;28;20073;-61
2023/05/29 04:08:34;;;;;;;9.88;5.00;;;;;13.50;98720.00;;;;5053362;28;20075;-59
2023/05/29 04:11:03;;;;;;;8.70;4.80;;;;;13.40;98719.00;;;;5053214;28;20469;-59
2023/05/29 04:13:30;;;;;;;8.05;5.00;;;;;13.40;98719.00;;;;5053338;28;20045;-60
2023/05/29 04:15:56;;;;;;;7.70;5.07;;;;;13.40;98720.00;;;;5053009;28;20105;-62
2023/05/29 04:18:23;;;;;;;6.93;5.00;;;;;13.50;98724.00;;;;5052281;28;20068;-59
2023/05/29 04:20:50;;;;;;;8.70;5.00;;;;;13.60;98729.00;;;;5052925;28;20049;-60
2023/05/29 04:23:17;;;;;;;6.10;4.57;;;;;13.80;98722.00;;;;5053110;28;20421;-61
2023/05/29 04:25:43;;;;;;;6.68;4.80;;;;;14.00;98744.00;;;;5036466;28;20049;-60
2023/05/29 04:28:12;;;;;;;7.55;4.78;;;;;14.20;98746.00;;;;5053107;28;20053;-63
2023/05/29 04:30:39;;;;;;;6.90;4.68;;;;;14.30;98740.00;;;;5053919;28;20132;-61
2023/05/29 04:33:06;;;;;;;9.95;5.28;;;;;14.50;98750.00;;;;5052866;28;20045;-62
2023/05/29 04:35:36;;;;;;;7.70;5.22;;;;;14.60;98751.00;;;;5052586;28;20041;-60
2023/05/29 04:38:07;;;;;;;10.98;4.68;;;;;14.60;98754.00;;;;5052771;28;20461;-62
2023/05/29 04:40:33;;;;;;;8.15;5.00;;;;;14.70;98757.00;;;;5052604;28;20048;-62
2023/05/29 04:43:02;;;;;;;6.53;4.15;;;;;14.60;98758.00;;;;5052568;28;20048;-63
2023/05/29 04:45:41;;;;;;;8.50;5.05;;;;;14.50;98759.00;;;;5052660;28;20049;-63
2023/05/29 04:48:08;;;;;;;6.68;4.38;;;;;14.40;98758.00;;;;5052764;28;20049;-63
2023/05/29 04:50:36;;;;;;;8.15;4.93;;;;;14.60;98764.00;;;;5035338;28;20102;-62
2023/05/29 04:53:03;;;;;;;7.75;5.25;;;;;14.60;98764.00;;;;5052513;28;20045;-63
2023/05/29 04:55:29;;;;;;;7.15;4.47;;;;;14.60;98773.00;;;;5052583;28;20131;-63
2023/05/29 04:57:56;;;;;;;9.20;5.00;;;;;14.60;98776.00;;;;5052672;28;20049;-63
2023/05/29 05:00:25;;;;;;;7.38;4.78;;;;;14.70;98778.00;;;;5035981;28;20053;-62
2023/05/29 05:02:51;;;;;;;7.75;4.82;;;;;14.70;98772.00;;;;5052440;28;20160;-62
2023/05/29 05:05:18;;;;;;;8.90;5.20;;;;;14.90;98769.00;;;;5052300;28;20501;-63
2023/05/29 05:07:45;;;;;;;7.00;5.20;;;;;15.10;98768.00;;;;5052676;28;20049;-62
2023/05/29 05:10:12;;;;;;;6.78;4.82;;;;;15.20;98781.00;;;;5052178;28;20053;-61
2023/05/29 05:12:39;;;;;;;8.95;5.20;;;;;15.30;98784.00;;;;5052139;28;20156;-62
2023/05/29 05:15:07;;;;;;;5.43;3.92;;;;;15.50;98784.00;;;;5052561;28;20127;-61
2023/05/29 05:17:34;;;;;;;7.50;4.75;;;;;15.60;98796.00;;;;5052479;28;20509;-62
2023/05/29 05:20:01;;;;;;;8.38;5.07;;;;;15.50;98797.00;;;;5051900;28;20048;-60
2023/05/29 05:22:28;;;;;;;7.60;5.53;;;;;15.60;98800.00;;;;5035475;28;20049;-61
2023/05/29 05:24:56;;;;;;;10.48;6.47;;;;;15.70;98799.00;;;;5052099;28;20045;-60
2023/05/29 05:27:23;;;;;;;7.40;4.55;;;;;15.70;98787.00;;;;5051801;28;20122;-60
2023/05/29 05:29:50;;;;;;;9.05;5.65;;;;;15.80;98796.00;;;;5051323;28;20052;-60
2023/05/29 05:32:18;;;;;;;11.50;6.72;;;;;15.80;98797.00;;;;5051919;28;20068;-60
2023/05/29 05:34:47;;;;;;;7.75;4.63;;;;;15.90;98802.00;;;;5052180;28;20041;-62
2023/05/29 05:37:13;;;;;;;8.23;5.07;;;;;16.10;98787.00;;;;5053056;28;20045;-60
2023/05/29 05:39:42;;;;;;;10.70;4.85;;;;;16.20;98795.00;;;;5052236;28;20051;-61
2023/05/29 05:42:09;;;;;;;7.00;5.10;;;;;16.30;98801.00;;;;5059397;28;20441;-65
2023/05/29 05:44:53;;;;;;;7.65;4.03;;;;;16.30;98800.00;;;;5063453;28;20068;-62
2023/05/29 05:47:19;;;;;;;8.65;4.53;;;;;16.50;98805.00;;;;5053166;28;20056;-62
2023/05/29 05:49:46;;;;;;;8.35;5.28;;;;;16.60;98800.00;;;;5052177;28;20459;-61
2023/05/29 05:52:13;;;;;;;6.35;4.32;;;;;16.80;98801.00;;;;5051875;28;20055;-62
2023/05/29 05:54:39;;;;;;;8.82;6.07;;;;;16.90;98794.00;;;;5051811;28;20052;-61
2023/05/29 05:57:06;;;;;;;9.73;5.82;;;;;17.10;98798.00;;;;5053030;28;20041;-62
2023/05/29 05:59:35;;;;;;;7.82;4.85;;;;;17.10;98809.00;;;;5051280;28;20520;-62
2023/05/29 06:02:03;;;;;;;7.85;5.13;;;;;17.00;98818.00;;;;5051564;28;20052;-61
2023/05/29 06:04:35;;;;;;;5.82;4.20;;;;;17.20;98822.00;;;;5051526;28;20567;-61
2023/05/29 06:07:02;;;;;;;7.72;4.88;;;;;17.40;98818.00;;;;5052061;28;20056;-61
2023/05/29 06:09:29;;;;;;;13.25;8.85;;;;;17.40;98822.00;;;;5051383;28;20498;-61
2023/05/29 06:11:55;;;;;;;11.30;7.03;;;;;17.60;98823.00;;;;5051372;28;20053;-62
2023/05/29 06:14:23;;;;;;;11.73;5.85;;;;;17.70;98830.00;;;;5051418;28;20044;-61
2023/05/29 06:16:50;;;;;;;9.05;5.30;;;;;17.80;98826.00;;;;5051468;28;20069;-61
2023/05/29 06:19:17;;;;;;;8.80;4.82;;;;;18.00;98826.00;;;;5052279;28;20071;-62
2023/05/29 06:21:53;;;;;;;6.88;3.80;;;;;18.10;98818.00;;;;5036133;28;20049;-62
2023/05/29 06:24:20;;;;;;;7.35;4.43;;;;;18.30;98830.00;;;;5034725;28;20041;-62
2023/05/29 06:26:47;;;;;;;7.45;3.90;;;;;18.40;98825.00;;;;5051230;28;20041;-62
2023/05/29 06:29:15;;;;;;;9.38;3.67;;;;;18.50;98829.00;;;;5050790;28;20044;-61
2023/05/29 06:31:41;;;;;;;8.75;4.53;;;;;18.60;98829.00;;;;5050706;28;20048;-62
2023/05/29 06:34:08;;;;;;;7.38;4.20;;;;;18.60;98825.00;;;;5050916;28;20068;-62
2023/05/29 06:36:34;;;;;;;5.50;4.05;;;;;18.70;98835.00;;;;5050721;28;20057;-62
2023/05/29 06:39:01;;;;;;;7.10;3.92;;;;;18.80;98832.00;;;;5034222;28;20049;-62
2023/05/29 06:41:28;;;;;;;6.57;3.67;;;;;18.90;98830.00;;;;5050519;28;20056;-62
2023/05/29 06:43:54;;;;;;;6.32;3.50;;;;;19.00;98834.00;;;;5050783;28;20045;-62
2023/05/29 06:46:21;;;;;;;7.72;3.08;;;;;18.90;98841.00;;;;5051161;28;20045;-62
2023/05/29 06:48:48;;;;;;;5.03;3.42;;;;;18.90;98835.00;;;;5052575;28;20524;-62
2023/05/29 06:51:15;;;;;;;8.10;4.00;;;;;19.10;98829.00;;;;5054107;28;20048;-63
2023/05/29 06:54:11;;;;;;;3.47;2.90;;;;;19.20;98852.00;;;;5053656;28;20056;-62
2023/05/29 06:56:38;;;;;;;5.45;3.10;;;;;19.20;98824.00;;;;5053959;28;20036;-61
2023/05/29 06:59:05;;;;;;;5.05;2.80;;;;;19.20;98834.00;;;;5052650;28;20428;-61
2023/05/29 07:01:32;;;;;;;4.97;3.10;;;;;19.20;98837.00;;;;5052229;28;20053;-60
2023/05/29 07:04:03;;;;;;;3.40;2.80;;;;;19.30;98837.00;;;;5052272;28;20045;-61
2023/05/29 07:06:30;;;;;;;5.30;2.75;;;;;19.30;98848.00;;;;5035583;28;20052;-61
2023/05/29 07:08:58;;;;;;;3.97;2.55;;;;;19.30;98847.00;;;;5052979;28;20449;-60
2023/05/29 07:11:26;;;;;;;6.10;3.15;;;;;19.40;98843.00;;;;5034218;28;20080;-61
2023/05/29 07:13:53;;;;;;;6.88;3.78;;;;;19.50;98847.00;;;;5051887;28;20120;-61
2023/05/29 07:16:20;;;;;;;4.38;2.80;;;;;19.50;98847.00;;;;5050753;28;20448;-60
2023/05/29 07:19:01;;;;;;;4.90;2.95;;;;;19.50;98846.00;;;;5036227;28;20056;-61
2023/05/29 07:21:31;;;;;;;6.00;3.15;;;;;19.60;98848.00;;;;5050446;28;20054;-62
2023/05/29 07:23:59;;;;;;;4.13;2.53;;;;;19.60;98847.00;;;;5033964;28;20049;-62
2023/05/29 07:26:26;;;;;;;6.43;3.22;;;;;19.70;98839.00;;;;5050914;28;20127;-62
2023/05/29 07:28:52;;;;;;;7.00;2.88;;;;;19.80;98845.00;;;;5050443;28;20068;-62
2023/05/29 07:31:19;;;;;;;5.53;2.90;;;;;19.90;98837.00;;;;5050590;28;20387;-62
2023/05/29 07:33:48;;;;;;;6.43;3.33;;;;;20.00;98844.00;;;;5051185;28;20140;-62
2023/05/29 07:36:17;;;;;;;5.30;3.20;;;;;20.10;98849.00;;;;5050439;28;20053;-62
2023/05/29 07:38:45;;;;;;;4.15;2.80;;;;;20.20;98852.00;;;;5050227;28;20514;-62
2023/05/29 07:41:15;;;;;;;4.88;2.90;;;;;20.20;98847.00;;;;5050247;28;20053;-62
2023/05/29 07:43:51;;;;;;;5.97;2.65;;;;;20.20;98859.00;;;;5050411;28;20044;-62
2023/05/29 07:46:19;;;;;;;4.95;3.28;;;;;20.30;98864.00;;;;5050343;28;20049;-63
2023/05/29 07:48:49;;;;;;;6.07;3.72;;;;;20.50;98856.00;;;;5050124;28;20059;-61
2023/05/29 07:51:17;;;;;;;7.20;3.67;;;;;20.60;98858.00;;;;5051053;28;20045;-61
2023/05/29 07:53:46;;;;;;;7.32;5.40;;;;;20.60;98863.00;;;;5054173;28;20422;-62
2023/05/29 07:56:13;;;;;;;4.30;3.20;;;;;20.60;98862.00;;;;5037343;28;20037;-61
2023/05/29 07:58:41;;;;;;;6.25;3.63;;;;;20.60;98860.00;;;;5055030;28;20037;-62
2023/05/29 08:01:08;;;;;;;8.30;3.97;;;;;20.80;98856.00;;;;5054665;28;20102;-62
2023/05/29 08:03:35;;;;;;;7.95;5.63;;;;;20.80;98857.00;;;;5053542;28;20055;-62
2023/05/29 08:06:24;;;;;;;8.55;3.70;;;;;20.90;98856.00;;;;5053562;28;20053;-62
2023/05/29 08:08:52;;;;;;;6.00;3.42;;;;;20.90;98866.00;;;;5053401;28;20045;-63
2023/05/29 08:11:22;;;;;;;4.97;2.83;;;;;20.90;98868.00;;;;5053682;28;20045;-64
2023/05/29 08:13:49;;;;;;;7.85;3.90;;;;;20.90;98871.00;;;;5053798;28;20049;-62
2023/05/29 08:16:17;;;;;;;6.38;3.60;;;;;21.00;98873.00;;;;5053324;28;20041;-63
2023/05/29 08:18:43;;;;;;;8.10;3.92;;;;;21.20;98867.00;;;;5054773;28;20102;-62
2023/05/29 08:21:10;;;;;;;8.40;4.80;;;;;21.30;98868.00;;;;5054437;28;20044;-62
2023/05/29 08:23:37;;;;;;;6.28;3.90;;;;;21.30;98872.00;;;;5054605;28;20461;-62
2023/05/29 08:26:04;;;;;;;6.25;3.42;;;;;21.40;98868.00;;;;5054556;28;20049;-63
2023/05/29 08:28:30;;;;;;;5.80;3.75;;;;;21.50;98869.00;;;;5054526;28;20128;-62
2023/05/29 08:30:57;;;;;;;5.95;3.50;;;;;21.60;98880.00;;;;5054390;28;20056;-62
2023/05/29 08:33:23;;;;;;;6.97;4.07;;;;;21.70;98874.00;;;;5054468;28;20045;-62
2023/05/29 08:35:50;;;;;;;7.65;3.28;;;;;21.80;98877.00;;;;5054414;28;20047;-62
2023/05/29 08:38:17;;;;;;;6.13;3.80;;;;;21.70;98871.00;;;;5054330;28;20056;-62
2023/05/29 08:40:43;;;;;;;8.50;3.47;;;;;21.60;98871.00;;;;5054107;28;20123;-62
2023/05/29 08:43:16;;;;;;;5.63;3.10;;;;;21.70;98871.00;;;;5053901;28;20065;-62
2023/05/29 08:45:44;;;;;;;4.90;3.10;;;;;21.80;98868.00;;;;5054096;28;20072;-63
2023/05/29 08:48:11;;;;;;;6.13;3.13;;;;;21.80;98868.00;;;;5054212;28;20760;-63
2023/05/29 08:50:48;;;;;;;7.43;3.30;;;;;21.80;98863.00;;;;5053799;28;20545;-63
2023/05/29 08:53:16;;;;;;;4.32;2.80;;;;;21.90;98859.00;;;;5054223;28;20602;-63
2023/05/29 08:55:43;;;;;;;6.00;3.42;;;;;22.10;98857.00;;;;5052691;28;20040;-63
2023/05/29 08:58:11;;;;;;;8.13;3.55;;;;;22.20;98862.00;;;;5054023;28;20509;-63
2023/05/29 09:00:38;;;;;;;6.25;3.30;;;;;22.20;98866.00;;;;5053805;28;20064;-63
2023/05/29 09:03:05;;;;;;;6.07;3.78;;;;;22.10;98864.00;;;;5053359;28;20044;-63
2023/05/29 09:05:32;;;;;;;5.35;3.28;;;;;22.20;98868.00;;;;5053719;28;20049;-62
2023/05/29 09:07:59;;;;;;;5.40;3.10;;;;;22.30;98870.00;;;;5053803;28;20052;-63
2023/05/29 09:10:26;;;;;;;5.13;3.15;;;;;22.40;98864.00;;;;5053614;28;20068;-60
2023/05/29 09:12:53;;;;;;;6.45;3.35;;;;;22.50;98869.00;;;;5053684;28;20072;-62
2023/05/29 09:15:21;;;;;;;5.70;3.45;;;;;22.50;98870.00;;;;5053659;28;20040;-62
2023/05/29 09:17:58;;;;;;;8.27;3.40;;;;;22.60;98875.00;;;;5053581;28;20076;-63
2023/05/29 09:20:25;;;;;;;4.65;3.22;;;;;22.60;98867.00;;;;5053097;28;20131;-63
2023/05/29 09:22:54;;;;;;;6.47;3.47;;;;;22.70;98869.00;;;;5053544;28;20049;-63
2023/05/29 09:25:26;;;;;;;6.32;3.30;;;;;22.70;98868.00;;;;5053385;28;20040;-62
2023/05/29 09:27:58;;;;;;;12.63;3.30;;;;;22.70;98864.00;;;;5053552;28;20037;-63
2023/05/29 09:30:48;;;;;;;8.55;3.55;;;;;22.90;98869.00;;;;5053035;28;20644;-64
2023/05/29 09:33:16;;;;;;;6.88;3.28;;;;;23.00;98866.00;;;;5053345;28;20049;-63
2023/05/29 09:35:45;;;;;;;5.55;2.90;;;;;23.10;98865.00;;;;5053194;28;20099;-62
2023/05/29 09:38:19;;;;;;;4.78;3.20;;;;;23.20;98868.00;;;;5062980;28;20654;-62
2023/05/29 09:41:06;;;;;;;;;;;;;23.30;98879.00;;;;5053449;28;20094;-62
2023/05/29 09:43:33;;;;;;;4.90;3.45;;;;;23.20;98881.00;;;;5062482;28;19920;-62
2023/05/29 09:46:01;;;;;;;5.85;2.63;;;;;23.20;98879.00;;;;5066907;28;20041;-64
2023/05/29 09:48:29;;;;;;;6.43;3.15;;;;;23.30;98874.00;;;;5059800;28;20079;-64
2023/05/29 09:50:57;;;;;;;5.60;2.90;;;;;23.40;98883.00;;;;5052880;28;20422;-64
2023/05/29 09:53:25;;;;;;;7.03;3.75;;;;;23.30;98873.00;;;;5053584;28;20103;-63
2023/05/29 09:55:52;;;;;;;7.68;3.30;;;;;23.40;98879.00;;;;5051788;28;20045;-65
2023/05/29 09:58:20;;;;;;;5.05;3.13;;;;;23.50;98876.00;;;;5052071;28;20049;-64
2023/05/29 10:00:48;;;;;;;7.10;3.45;;;;;23.60;98870.00;;;;5051439;28;20049;-65
2023/05/29 10:03:16;;;;;;;6.93;3.53;;;;;23.60;98873.00;;;;5052827;28;20469;-63
2023/05/29 10:05:48;;;;;;;5.85;3.45;;;;;23.70;98880.00;;;;5051980;28;20123;-65
2023/05/29 10:08:17;;;;;;;7.15;3.53;;;;;23.80;98870.00;;;;5052870;28;20049;-62
2023/05/29 10:10:48;;;;;;;9.15;4.53;;;;;23.90;98882.00;;;;5051446;28;20095;-63
2023/05/29 10:13:16;;;;;;;16.23;11.48;;;;;23.90;98873.00;;;;5053238;28;20041;-63
2023/05/29 10:15:45;;;;;;;6.40;3.88;;;;;24.00;98879.00;;;;5052294;28;20409;-64
2023/05/29 10:18:45;;;;;;;7.05;3.45;;;;;24.10;98873.00;;;;5053270;28;20048;-63
2023/05/29 10:21:12;;;;;;;4.50;2.72;;;;;24.10;98875.00;;;;5049692;28;20057;-63
2023/05/29 10:23:45;;;;;;;8.15;3.45;;;;;24.10;98860.00;;;;5053188;28;20102;-63
2023/05/29 10:26:30;;;;;;;6.75;3.28;;;;;24.20;98857.00;;;;5053255;28;20391;-63
2023/05/29 10:29:24;;;;;;;4.25;2.85;;;;;24.20;98870.00;;;;5052807;28;20167;-62
2023/05/29 10:32:12;;;;;;;4.88;3.60;;;;;24.10;98865.00;;;;5054057;28;20045;-63
2023/05/29 10:35:11;;;;;;;6.03;3.85;;;;;24.30;98865.00;;;;5054993;28;20379;-63
2023/05/29 10:37:48;;;;;;;4.38;2.65;;;;;24.30;98867.00;;;;5036428;28;20051;-64
2023/05/29 10:40:16;;;;;;;7.10;3.20;;;;;24.30;98864.00;;;;5053105;28;20051;-62
2023/05/29 10:42:54;;;;;;;7.45;3.40;;;;;24.40;98854.00;;;;5053699;28;20045;-62
2023/05/29 10:45:30;;;;;;;4.75;2.83;;;;;24.40;98855.00;;;;5053296;28;20045;-62
2023/05/29 10:48:06;;;;;;;6.72;3.13;;;;;24.40;98852.00;;;;5051722;28;20478;-62
2023/05/29 10:50:36;;;;;;;5.65;3.42;;;;;24.40;98853.00;;;;5052732;28;20449;-61
2023/05/29 10:53:03;;;;;;;5.25;2.92;;;;;24.40;98845.00;;;;5053039;28;20051;-62
2023/05/29 10:55:35;;;;;;;7.45;3.13;;;;;24.50;98844.00;;;;5052775;28;20071;-63
2023/05/29 10:58:12;;;;;;;4.78;3.00;;;;;24.70;98855.00;;;;5052943;28;20045;-61
2023/05/29 11:00:42;;;;;;;4.82;3.10;;;;;24.80;98864.00;;;;5052405;28;20282;-63
2023/05/29 11:03:10;;;;;;;5.40;3.13;;;;;24.80;98858.00;;;;5052389;28;20102;-64
2023/05/29 11:05:56;;;;;;;5.55;2.67;;;;;24.90;98855.00;;;;5050718;28;20120;-64
2023/05/29 11:08:33;;;;;;;6.45;3.30;;;;;25.00;98861.00;;;;5051913;28;20047;-65
2023/05/29 11:11:00;;;;;;;5.18;3.50;;;;;25.10;98862.00;;;;5050658;28;20061;-62
2023/05/29 11:13:34;;;;;;;5.32;3.30;;;;;24.90;98856.00;;;;5051937;28;20174;-61
2023/05/29 11:16:06;;;;;;;6.65;3.13;;;;;24.80;98856.00;;;;5051657;28;20132;-63
2023/05/29 11:18:42;;;;;;;6.03;3.42;;;;;25.00;98863.00;;;;5051806;28;20052;-61
2023/05/29 11:21:31;;;;;;;5.65;3.42;;;;;25.20;98845.00;;;;5051608;28;20037;-62
2023/05/29 11:24:02;;;;;;;3.67;3.13;;;;;25.20;98851.00;;;;5051960;28;20507;-61
2023/05/29 11:26:36;;;;;;;10.20;5.30;;;;;25.40;98858.00;;;;5053293;28;20068;-63
2023/05/29 11:29:05;;;;;;;6.68;3.70;;;;;25.30;98857.00;;;;5055487;28;20044;-64
2023/05/29 11:31:34;;;;;;;4.53;3.05;;;;;25.40;98856.00;;;;5055931;28;20054;-61
2023/05/29 11:34:04;;;;;;;6.03;3.80;;;;;25.60;98858.00;;;;5054254;28;20103;-63
2023/05/29 11:36:34;;;;;;;4.53;3.00;;;;;25.60;98850.00;;;;5054241;28;20495;-62
2023/05/29 11:39:02;;;;;;;5.82;3.55;;;;;25.70;98862.00;;;;5055609;28;20045;-62
2023/05/29 11:41:29;;;;;;;5.20;3.10;;;;;25.90;98866.00;;;;5055440;28;20069;-62
2023/05/29 11:44:01;;;;;;;5.80;3.50;;;;;25.80;98861.00;;;;5055492;28;20120;-64
2023/05/29 11:46:32;;;;;;;4.32;2.78;;;;;25.90;98859.00;;;;5055301;28;20520;-64
2023/05/29 11:48:59;;;;;;;3.75;2.70;;;;;25.80;98863.00;;;;5053946;28;20049;-62
2023/05/29 11:51:27;;;;;;;4.22;2.88;;;;;25.90;98857.00;;;;5054192;28;20053;-61
2023/05/29 11:53:57;;;;;;;7.00;3.85;;;;;26.00;98870.00;;;;5055427;28;20045;-63
2023/05/29 11:56:26;;;;;;;5.00;2.90;;;;;25.90;98869.00;;;;5054117;28;20041;-63
2023/05/29 11:58:56;;;;;;;4.47;2.90;;;;;25.80;98863.00;;;;5054890;28;20037;-63
2023/05/29 12:01:24;;;;;;;5.80;3.47;;;;;25.80;98856.00;;;;5055197;28;20073;-62
2023/05/29 12:03:52;;;;;;;6.30;2.92;;;;;25.80;98861.00;;;;5053778;28;20075;-63
2023/05/29 12:06:37;;;;;;;5.13;3.42;;;;;25.90;98863.00;;;;5053878;28;20512;-62
2023/05/29 12:09:04;;;;;;;5.88;3.25;;;;;25.80;98863.00;;;;5053737;28;20094;-63
2023/05/29 12:11:31;;;;;;;3.70;2.80;;;;;25.70;98855.00;;;;5055051;28;20040;-62
2023/05/29 12:14:02;;;;;;;4.95;3.20;;;;;25.70;98846.00;;;;5054771;28;20041;-63
2023/05/29 12:16:31;;;;;;;5.88;3.00;;;;;25.80;98850.00;;;;5054982;28;20337;-63
2023/05/29 12:18:58;;;;;;;3.67;3.15;;;;;26.00;98849.00;;;;5053558;28;20095;-63
2023/05/29 12:21:26;;;;;;;5.50;3.00;;;;;26.20;98852.00;;;;5054823;28;20041;-62
2023/05/29 12:23:54;;;;;;;6.25;3.75;;;;;26.10;98860.00;;;;5053483;28;20102;-62
2023/05/29 12:26:39;;;;;;;3.85;2.65;;;;;26.00;98852.00;;;;5054754;28;20562;-61